sensor_id;sensor_type;location;lat;lon;timestamp;P1;durP1;ratioP1;P2;durP2;ratioP2
7450;SDS011;3767;42.688;23.360;2022-07-24T00:00:37;13.35;;;8.10;;
7450;SDS011;3767;42.688;23.360;2022-07-24T00:03:03;12.65;;;8.90;;
7450;SDS011;3767;42.688;23.360;2022-07-24T00:05:30;13.55;;;9.27;;
7450;SDS011;3767;42.688;23.360;2022-07-24T00:07:58;14.32;;;9.38;;
7450;SDS011;3767;42.688;23.360;2022-07-24T00:10:24;14.93;;;8.93;;
7450;SDS011;3767;42.688;23.360;2022-07-24T00:12:51;16.67;;;9.15;;
7450;SDS011;3767;42.688;23.360;2022-07-24T00:15:17;15.77;;;9.77;;
7450;SDS011;3767;42.688;23.360;2022-07-24T00:17:44;13.70;;;9.48;;
7450;SDS011;3767;42.688;23.360;2022-07-24T00:20:11;15.43;;;9.20;;
7450;SDS011;3767;42.688;23.360;2022-07-24T00:22:37;12.63;;;9.13;;
7450;SDS011;3767;42.688;23.360;2022-07-24T00:25:05;12.98;;;8.90;;
7450;SDS011;3767;42.688;23.360;2022-07-24T00:27:32;16.60;;;9.65;;
7450;SDS011;3767;42.688;23.360;2022-07-24T00:29:58;15.20;;;9.90;;
7450;SDS011;3767;42.688;23.360;2022-07-24T00:32:25;17.08;;;9.35;;
7450;SDS011;3767;42.688;23.360;2022-07-24T00:34:51;11.10;;;8.95;;
7450;SDS011;3767;42.688;23.360;2022-07-24T00:37:18;15.05;;;9.60;;
7450;SDS011;3767;42.688;23.360;2022-07-24T00:39:44;16.50;;;9.73;;
7450;SDS011;3767;42.688;23.360;2022-07-24T00:42:14;14.60;;;8.68;;
7450;SDS011;3767;42.688;23.360;2022-07-24T00:44:40;15.13;;;9.10;;
7450;SDS011;3767;42.688;23.360;2022-07-24T00:47:07;14.18;;;9.43;;
7450;SDS011;3767;42.688;23.360;2022-07-24T00:49:33;20.20;;;9.52;;
7450;SDS011;3767;42.688;23.360;2022-07-24T00:52:00;15.70;;;9.77;;
7450;SDS011;3767;42.688;23.360;2022-07-24T00:54:26;15.93;;;9.65;;
7450;SDS011;3767;42.688;23.360;2022-07-24T00:56:53;18.45;;;9.70;;
7450;SDS011;3767;42.688;23.360;2022-07-24T00:59:21;15.13;;;9.93;;
7450;SDS011;3767;42.688;23.360;2022-07-24T01:01:48;21.83;;;11.55;;
7450;SDS011;3767;42.688;23.360;2022-07-24T01:04:15;21.45;;;13.00;;
7450;SDS011;3767;42.688;23.360;2022-07-24T01:06:41;18.70;;;14.02;;
7450;SDS011;3767;42.688;23.360;2022-07-24T01:09:08;24.13;;;13.85;;
7450;SDS011;3767;42.688;23.360;2022-07-24T01:11:35;22.00;;;12.43;;
7450;SDS011;3767;42.688;23.360;2022-07-24T01:14:01;17.70;;;11.45;;
7450;SDS011;3767;42.688;23.360;2022-07-24T01:16:29;17.45;;;11.57;;
7450;SDS011;3767;42.688;23.360;2022-07-24T01:18:56;15.50;;;10.00;;
7450;SDS011;3767;42.688;23.360;2022-07-24T01:21:24;15.52;;;10.18;;
7450;SDS011;3767;42.688;23.360;2022-07-24T01:23:51;18.40;;;9.93;;
7450;SDS011;3767;42.688;23.360;2022-07-24T01:26:17;17.45;;;10.13;;
7450;SDS011;3767;42.688;23.360;2022-07-24T01:28:44;15.85;;;10.05;;
7450;SDS011;3767;42.688;23.360;2022-07-24T01:31:10;13.80;;;10.25;;
7450;SDS011;3767;42.688;23.360;2022-07-24T01:33:37;14.52;;;9.50;;
7450;SDS011;3767;42.688;23.360;2022-07-24T01:36:03;13.65;;;8.70;;
7450;SDS011;3767;42.688;23.360;2022-07-24T01:38:31;14.60;;;8.63;;
7450;SDS011;3767;42.688;23.360;2022-07-24T01:40:58;12.88;;;8.80;;
7450;SDS011;3767;42.688;23.360;2022-07-24T01:43:24;13.55;;;9.15;;
7450;SDS011;3767;42.688;23.360;2022-07-24T01:45:51;11.45;;;8.25;;
7450;SDS011;3767;42.688;23.360;2022-07-24T01:48:17;22.85;;;13.68;;
7450;SDS011;3767;42.688;23.360;2022-07-24T01:50:44;13.65;;;10.02;;
7450;SDS011;3767;42.688;23.360;2022-07-24T01:53:10;14.68;;;8.85;;
7450;SDS011;3767;42.688;23.360;2022-07-24T01:55:38;14.88;;;9.32;;
7450;SDS011;3767;42.688;23.360;2022-07-24T01:58:05;11.20;;;8.52;;
7450;SDS011;3767;42.688;23.360;2022-07-24T02:00:31;12.73;;;8.70;;
7450;SDS011;3767;42.688;23.360;2022-07-24T02:02:58;15.10;;;8.93;;
7450;SDS011;3767;42.688;23.360;2022-07-24T02:05:24;17.13;;;8.48;;
7450;SDS011;3767;42.688;23.360;2022-07-24T02:07:54;12.13;;;7.72;;
7450;SDS011;3767;42.688;23.360;2022-07-24T02:10:21;15.40;;;8.98;;
7450;SDS011;3767;42.688;23.360;2022-07-24T02:12:49;12.88;;;7.93;;
7450;SDS011;3767;42.688;23.360;2022-07-24T02:15:16;14.35;;;8.20;;
7450;SDS011;3767;42.688;23.360;2022-07-24T02:17:44;15.57;;;8.07;;
7450;SDS011;3767;42.688;23.360;2022-07-24T02:20:11;17.63;;;8.55;;
7450;SDS011;3767;42.688;23.360;2022-07-24T02:22:37;9.75;;;8.07;;
7450;SDS011;3767;42.688;23.360;2022-07-24T02:25:04;15.50;;;8.40;;
7450;SDS011;3767;42.688;23.360;2022-07-24T02:27:31;11.25;;;7.55;;
7450;SDS011;3767;42.688;23.360;2022-07-24T02:29:59;15.43;;;8.75;;
7450;SDS011;3767;42.688;23.360;2022-07-24T02:32:25;11.38;;;8.02;;
7450;SDS011;3767;42.688;23.360;2022-07-24T02:34:52;16.02;;;8.55;;
7450;SDS011;3767;42.688;23.360;2022-07-24T02:37:18;14.52;;;8.65;;
7450;SDS011;3767;42.688;23.360;2022-07-24T02:39:45;15.13;;;8.20;;
7450;SDS011;3767;42.688;23.360;2022-07-24T02:42:11;15.65;;;7.75;;
7450;SDS011;3767;42.688;23.360;2022-07-24T02:44:38;15.07;;;8.25;;
7450;SDS011;3767;42.688;23.360;2022-07-24T02:47:05;14.80;;;7.93;;
7450;SDS011;3767;42.688;23.360;2022-07-24T02:49:32;13.45;;;7.05;;
7450;SDS011;3767;42.688;23.360;2022-07-24T02:51:58;15.40;;;8.43;;
7450;SDS011;3767;42.688;23.360;2022-07-24T02:54:25;12.80;;;8.02;;
7450;SDS011;3767;42.688;23.360;2022-07-24T02:56:51;17.05;;;8.38;;
7450;SDS011;3767;42.688;23.360;2022-07-24T02:59:18;15.38;;;8.32;;
7450;SDS011;3767;42.688;23.360;2022-07-24T03:01:44;16.75;;;8.52;;
7450;SDS011;3767;42.688;23.360;2022-07-24T03:04:12;13.40;;;8.32;;
7450;SDS011;3767;42.688;23.360;2022-07-24T03:06:39;13.27;;;8.05;;
7450;SDS011;3767;42.688;23.360;2022-07-24T03:09:05;17.42;;;8.52;;
7450;SDS011;3767;42.688;23.360;2022-07-24T03:11:32;14.23;;;8.73;;
7450;SDS011;3767;42.688;23.360;2022-07-24T03:13:58;20.30;;;8.98;;
7450;SDS011;3767;42.688;23.360;2022-07-24T03:16:25;14.52;;;9.20;;
7450;SDS011;3767;42.688;23.360;2022-07-24T03:18:51;12.93;;;8.88;;
7450;SDS011;3767;42.688;23.360;2022-07-24T03:21:19;13.23;;;8.23;;
7450;SDS011;3767;42.688;23.360;2022-07-24T03:23:45;14.70;;;8.48;;
7450;SDS011;3767;42.688;23.360;2022-07-24T03:26:12;10.48;;;8.15;;
7450;SDS011;3767;42.688;23.360;2022-07-24T03:28:38;12.85;;;8.18;;
7450;SDS011;3767;42.688;23.360;2022-07-24T03:31:05;12.82;;;8.75;;
7450;SDS011;3767;42.688;23.360;2022-07-24T03:33:31;11.68;;;8.20;;
7450;SDS011;3767;42.688;23.360;2022-07-24T03:35:58;12.27;;;9.25;;
7450;SDS011;3767;42.688;23.360;2022-07-24T03:38:26;15.38;;;9.85;;
7450;SDS011;3767;42.688;23.360;2022-07-24T03:40:53;17.63;;;10.82;;
7450;SDS011;3767;42.688;23.360;2022-07-24T03:43:19;15.52;;;10.88;;
7450;SDS011;3767;42.688;23.360;2022-07-24T03:45:46;17.92;;;11.30;;
7450;SDS011;3767;42.688;23.360;2022-07-24T03:48:12;18.27;;;10.82;;
7450;SDS011;3767;42.688;23.360;2022-07-24T03:50:39;20.77;;;12.15;;
7450;SDS011;3767;42.688;23.360;2022-07-24T03:53:05;16.70;;;10.63;;
7450;SDS011;3767;42.688;23.360;2022-07-24T03:55:33;15.82;;;10.95;;
7450;SDS011;3767;42.688;23.360;2022-07-24T03:58:00;20.17;;;10.88;;
7450;SDS011;3767;42.688;23.360;2022-07-24T04:00:26;17.83;;;10.23;;
7450;SDS011;3767;42.688;23.360;2022-07-24T04:02:52;15.80;;;9.30;;
7450;SDS011;3767;42.688;23.360;2022-07-24T04:05:19;14.93;;;9.48;;
7450;SDS011;3767;42.688;23.360;2022-07-24T04:07:45;12.98;;;9.20;;
7450;SDS011;3767;42.688;23.360;2022-07-24T04:10:12;13.85;;;9.05;;
7450;SDS011;3767;42.688;23.360;2022-07-24T04:12:40;15.45;;;9.48;;
7450;SDS011;3767;42.688;23.360;2022-07-24T04:15:07;14.32;;;9.18;;
7450;SDS011;3767;42.688;23.360;2022-07-24T04:17:36;16.35;;;9.30;;
7450;SDS011;3767;42.688;23.360;2022-07-24T04:20:03;14.88;;;9.38;;
7450;SDS011;3767;42.688;23.360;2022-07-24T04:22:30;16.63;;;9.95;;
7450;SDS011;3767;42.688;23.360;2022-07-24T04:24:56;18.48;;;9.80;;
7450;SDS011;3767;42.688;23.360;2022-07-24T04:27:23;22.50;;;10.30;;
7450;SDS011;3767;42.688;23.360;2022-07-24T04:29:51;15.07;;;9.40;;
7450;SDS011;3767;42.688;23.360;2022-07-24T04:32:17;19.75;;;9.10;;
7450;SDS011;3767;42.688;23.360;2022-07-24T04:34:44;14.55;;;8.75;;
7450;SDS011;3767;42.688;23.360;2022-07-24T04:37:10;13.45;;;8.82;;
7450;SDS011;3767;42.688;23.360;2022-07-24T04:39:36;13.15;;;9.32;;
7450;SDS011;3767;42.688;23.360;2022-07-24T04:42:03;18.67;;;9.82;;
7450;SDS011;3767;42.688;23.360;2022-07-24T04:44:29;18.52;;;9.60;;
7450;SDS011;3767;42.688;23.360;2022-07-24T04:46:57;15.20;;;9.07;;
7450;SDS011;3767;42.688;23.360;2022-07-24T04:49:24;15.13;;;9.40;;
7450;SDS011;3767;42.688;23.360;2022-07-24T04:51:50;16.77;;;9.73;;
7450;SDS011;3767;42.688;23.360;2022-07-24T04:54:17;14.00;;;9.10;;
7450;SDS011;3767;42.688;23.360;2022-07-24T04:56:43;15.57;;;9.60;;
7450;SDS011;3767;42.688;23.360;2022-07-24T04:59:10;18.60;;;9.30;;
7450;SDS011;3767;42.688;23.360;2022-07-24T05:01:36;15.82;;;9.65;;
7450;SDS011;3767;42.688;23.360;2022-07-24T05:04:04;16.73;;;9.45;;
7450;SDS011;3767;42.688;23.360;2022-07-24T05:06:31;13.05;;;9.23;;
7450;SDS011;3767;42.688;23.360;2022-07-24T05:08:57;13.10;;;8.57;;
7450;SDS011;3767;42.688;23.360;2022-07-24T05:11:24;11.40;;;8.80;;
7450;SDS011;3767;42.688;23.360;2022-07-24T05:13:50;13.45;;;9.40;;
7450;SDS011;3767;42.688;23.360;2022-07-24T05:16:17;13.18;;;9.15;;
7450;SDS011;3767;42.688;23.360;2022-07-24T05:18:44;12.50;;;8.93;;
7450;SDS011;3767;42.688;23.360;2022-07-24T05:21:11;13.18;;;9.27;;
7450;SDS011;3767;42.688;23.360;2022-07-24T05:23:39;12.80;;;9.00;;
7450;SDS011;3767;42.688;23.360;2022-07-24T05:26:06;14.57;;;9.93;;
7450;SDS011;3767;42.688;23.360;2022-07-24T05:28:32;18.20;;;9.85;;
7450;SDS011;3767;42.688;23.360;2022-07-24T05:30:59;18.98;;;9.75;;
7450;SDS011;3767;42.688;23.360;2022-07-24T05:33:25;18.08;;;10.75;;
7450;SDS011;3767;42.688;23.360;2022-07-24T05:35:51;19.63;;;11.10;;
7450;SDS011;3767;42.688;23.360;2022-07-24T05:38:19;24.77;;;11.57;;
7450;SDS011;3767;42.688;23.360;2022-07-24T05:40:46;22.13;;;11.13;;
7450;SDS011;3767;42.688;23.360;2022-07-24T05:43:12;15.23;;;10.60;;
7450;SDS011;3767;42.688;23.360;2022-07-24T05:45:41;12.68;;;10.27;;
7450;SDS011;3767;42.688;23.360;2022-07-24T05:48:08;19.70;;;11.10;;
7450;SDS011;3767;42.688;23.360;2022-07-24T05:50:34;16.45;;;10.60;;
7450;SDS011;3767;42.688;23.360;2022-07-24T05:53:00;20.70;;;11.05;;
7450;SDS011;3767;42.688;23.360;2022-07-24T05:55:28;19.88;;;10.70;;
7450;SDS011;3767;42.688;23.360;2022-07-24T05:57:55;17.13;;;10.40;;
7450;SDS011;3767;42.688;23.360;2022-07-24T06:00:21;16.90;;;10.68;;
7450;SDS011;3767;42.688;23.360;2022-07-24T06:02:48;18.40;;;11.02;;
7450;SDS011;3767;42.688;23.360;2022-07-24T06:05:14;17.50;;;10.77;;
7450;SDS011;3767;42.688;23.360;2022-07-24T06:07:41;20.90;;;10.98;;
7450;SDS011;3767;42.688;23.360;2022-07-24T06:10:08;18.85;;;10.57;;
7450;SDS011;3767;42.688;23.360;2022-07-24T06:12:36;19.50;;;11.45;;
7450;SDS011;3767;42.688;23.360;2022-07-24T06:15:02;21.67;;;11.93;;
7450;SDS011;3767;42.688;23.360;2022-07-24T06:17:29;16.67;;;10.90;;
7450;SDS011;3767;42.688;23.360;2022-07-24T06:19:55;17.45;;;10.50;;
7450;SDS011;3767;42.688;23.360;2022-07-24T06:22:22;16.10;;;9.57;;
7450;SDS011;3767;42.688;23.360;2022-07-24T06:24:48;15.77;;;10.05;;
7450;SDS011;3767;42.688;23.360;2022-07-24T06:27:15;15.05;;;10.45;;
7450;SDS011;3767;42.688;23.360;2022-07-24T06:29:43;20.88;;;12.05;;
7450;SDS011;3767;42.688;23.360;2022-07-24T06:32:09;20.45;;;10.98;;
7450;SDS011;3767;42.688;23.360;2022-07-24T06:34:35;17.13;;;11.15;;
7450;SDS011;3767;42.688;23.360;2022-07-24T06:37:02;17.98;;;11.13;;
7450;SDS011;3767;42.688;23.360;2022-07-24T06:39:28;17.13;;;10.95;;
7450;SDS011;3767;42.688;23.360;2022-07-24T06:41:55;23.02;;;11.55;;
7450;SDS011;3767;42.688;23.360;2022-07-24T06:44:21;22.27;;;11.88;;
7450;SDS011;3767;42.688;23.360;2022-07-24T06:46:50;19.35;;;11.77;;
7450;SDS011;3767;42.688;23.360;2022-07-24T06:49:16;25.77;;;11.70;;
7450;SDS011;3767;42.688;23.360;2022-07-24T06:51:43;18.00;;;11.38;;
7450;SDS011;3767;42.688;23.360;2022-07-24T06:54:09;14.00;;;10.60;;
7450;SDS011;3767;42.688;23.360;2022-07-24T06:56:36;16.00;;;10.68;;
7450;SDS011;3767;42.688;23.360;2022-07-24T06:59:02;16.95;;;10.40;;
7450;SDS011;3767;42.688;23.360;2022-07-24T07:01:29;15.07;;;10.52;;
7450;SDS011;3767;42.688;23.360;2022-07-24T07:03:57;12.23;;;9.82;;
7450;SDS011;3767;42.688;23.360;2022-07-24T07:06:23;13.43;;;10.52;;
7450;SDS011;3767;42.688;23.360;2022-07-24T07:08:50;16.95;;;11.20;;
7450;SDS011;3767;42.688;23.360;2022-07-24T07:11:17;15.25;;;10.27;;
7450;SDS011;3767;42.688;23.360;2022-07-24T07:13:43;16.02;;;10.57;;
7450;SDS011;3767;42.688;23.360;2022-07-24T07:16:10;14.35;;;11.10;;
7450;SDS011;3767;42.688;23.360;2022-07-24T07:18:36;18.40;;;11.10;;
7450;SDS011;3767;42.688;23.360;2022-07-24T07:21:04;17.73;;;10.50;;
7450;SDS011;3767;42.688;23.360;2022-07-24T07:23:31;14.68;;;10.38;;
7450;SDS011;3767;42.688;23.360;2022-07-24T07:25:57;14.10;;;10.68;;
7450;SDS011;3767;42.688;23.360;2022-07-24T07:28:24;16.75;;;10.40;;
7450;SDS011;3767;42.688;23.360;2022-07-24T07:30:50;16.00;;;11.05;;
7450;SDS011;3767;42.688;23.360;2022-07-24T07:33:17;16.10;;;11.02;;
7450;SDS011;3767;42.688;23.360;2022-07-24T07:35:44;17.00;;;10.77;;
7450;SDS011;3767;42.688;23.360;2022-07-24T07:38:11;17.10;;;11.43;;
7450;SDS011;3767;42.688;23.360;2022-07-24T07:40:38;13.65;;;10.90;;
7450;SDS011;3767;42.688;23.360;2022-07-24T07:43:04;19.83;;;11.35;;
7450;SDS011;3767;42.688;23.360;2022-07-24T07:45:31;19.17;;;10.73;;
7450;SDS011;3767;42.688;23.360;2022-07-24T07:47:57;14.98;;;10.60;;
7450;SDS011;3767;42.688;23.360;2022-07-24T07:50:24;16.90;;;10.75;;
7450;SDS011;3767;42.688;23.360;2022-07-24T07:52:50;19.80;;;11.27;;
7450;SDS011;3767;42.688;23.360;2022-07-24T07:55:18;24.67;;;11.13;;
7450;SDS011;3767;42.688;23.360;2022-07-24T07:57:45;15.00;;;10.35;;
7450;SDS011;3767;42.688;23.360;2022-07-24T08:00:11;16.30;;;11.02;;
7450;SDS011;3767;42.688;23.360;2022-07-24T08:02:38;12.80;;;10.35;;
7450;SDS011;3767;42.688;23.360;2022-07-24T08:05:05;13.25;;;10.50;;
7450;SDS011;3767;42.688;23.360;2022-07-24T08:07:31;16.35;;;10.80;;
7450;SDS011;3767;42.688;23.360;2022-07-24T08:09:58;15.90;;;10.68;;
7450;SDS011;3767;42.688;23.360;2022-07-24T08:12:26;15.05;;;9.75;;
7450;SDS011;3767;42.688;23.360;2022-07-24T08:14:53;17.05;;;10.38;;
7450;SDS011;3767;42.688;23.360;2022-07-24T08:17:20;15.55;;;10.02;;
7450;SDS011;3767;42.688;23.360;2022-07-24T08:19:46;14.38;;;9.40;;
7450;SDS011;3767;42.688;23.360;2022-07-24T08:22:13;13.88;;;9.45;;
7450;SDS011;3767;42.688;23.360;2022-07-24T08:24:40;15.38;;;9.93;;
7450;SDS011;3767;42.688;23.360;2022-07-24T08:27:06;13.90;;;9.73;;
7450;SDS011;3767;42.688;23.360;2022-07-24T08:29:34;12.45;;;9.88;;
7450;SDS011;3767;42.688;23.360;2022-07-24T08:32:00;16.98;;;9.77;;
7450;SDS011;3767;42.688;23.360;2022-07-24T08:34:27;16.80;;;10.35;;
7450;SDS011;3767;42.688;23.360;2022-07-24T08:36:53;19.42;;;10.13;;
7450;SDS011;3767;42.688;23.360;2022-07-24T08:39:20;15.90;;;9.85;;
7450;SDS011;3767;42.688;23.360;2022-07-24T08:41:46;11.77;;;9.60;;
7450;SDS011;3767;42.688;23.360;2022-07-24T08:44:13;14.48;;;9.77;;
7450;SDS011;3767;42.688;23.360;2022-07-24T08:46:41;10.80;;;9.27;;
7450;SDS011;3767;42.688;23.360;2022-07-24T08:49:09;12.60;;;9.43;;
7450;SDS011;3767;42.688;23.360;2022-07-24T08:51:37;17.35;;;9.40;;
7450;SDS011;3767;42.688;23.360;2022-07-24T08:54:03;12.48;;;9.95;;
7450;SDS011;3767;42.688;23.360;2022-07-24T08:56:30;21.35;;;10.00;;
7450;SDS011;3767;42.688;23.360;2022-07-24T08:58:58;20.58;;;11.10;;
7450;SDS011;3767;42.688;23.360;2022-07-24T09:01:25;16.40;;;11.13;;
7450;SDS011;3767;42.688;23.360;2022-07-24T09:03:53;16.15;;;11.07;;
7450;SDS011;3767;42.688;23.360;2022-07-24T09:06:19;19.48;;;11.02;;
7450;SDS011;3767;42.688;23.360;2022-07-24T09:08:56;19.33;;;11.43;;
7450;SDS011;3767;42.688;23.360;2022-07-24T09:11:23;17.45;;;11.30;;
7450;SDS011;3767;42.688;23.360;2022-07-24T09:13:51;20.40;;;11.27;;
7450;SDS011;3767;42.688;23.360;2022-07-24T09:16:35;21.08;;;11.57;;
7450;SDS011;3767;42.688;23.360;2022-07-24T09:19:04;18.45;;;11.55;;
7450;SDS011;3767;42.688;23.360;2022-07-24T09:21:32;19.35;;;11.90;;
7450;SDS011;3767;42.688;23.360;2022-07-24T09:23:59;22.23;;;12.18;;
7450;SDS011;3767;42.688;23.360;2022-07-24T09:26:33;19.20;;;11.13;;
7450;SDS011;3767;42.688;23.360;2022-07-24T09:29:08;23.17;;;11.68;;
7450;SDS011;3767;42.688;23.360;2022-07-24T09:31:48;27.08;;;11.80;;
7450;SDS011;3767;42.688;23.360;2022-07-24T09:34:16;22.73;;;12.30;;
7450;SDS011;3767;42.688;23.360;2022-07-24T09:36:42;17.48;;;12.00;;
7450;SDS011;3767;42.688;23.360;2022-07-24T09:39:17;18.92;;;11.07;;
7450;SDS011;3767;42.688;23.360;2022-07-24T09:41:49;18.77;;;11.27;;
7450;SDS011;3767;42.688;23.360;2022-07-24T09:44:16;18.23;;;11.07;;
7450;SDS011;3767;42.688;23.360;2022-07-24T09:46:45;23.45;;;10.95;;
7450;SDS011;3767;42.688;23.360;2022-07-24T09:49:17;16.70;;;10.55;;
7450;SDS011;3767;42.688;23.360;2022-07-24T09:51:44;19.75;;;11.43;;
7450;SDS011;3767;42.688;23.360;2022-07-24T09:54:11;16.27;;;10.38;;
7450;SDS011;3767;42.688;23.360;2022-07-24T09:56:37;17.92;;;10.30;;
7450;SDS011;3767;42.688;23.360;2022-07-24T09:59:04;11.38;;;9.95;;
7450;SDS011;3767;42.688;23.360;2022-07-24T10:01:32;18.92;;;10.77;;
7450;SDS011;3767;42.688;23.360;2022-07-24T10:04:00;15.32;;;10.48;;
7450;SDS011;3767;42.688;23.360;2022-07-24T10:06:28;22.20;;;10.70;;
7450;SDS011;3767;42.688;23.360;2022-07-24T10:08:55;11.88;;;9.85;;
7450;SDS011;3767;42.688;23.360;2022-07-24T10:11:22;15.18;;;10.63;;
7450;SDS011;3767;42.688;23.360;2022-07-24T10:13:49;16.08;;;9.32;;
7450;SDS011;3767;42.688;23.360;2022-07-24T10:18:57;13.65;;;9.57;;
7450;SDS011;3767;42.688;23.360;2022-07-24T10:21:25;17.00;;;9.85;;
7450;SDS011;3767;42.688;23.360;2022-07-24T10:24:12;15.02;;;9.32;;
7450;SDS011;3767;42.688;23.360;2022-07-24T10:26:47;15.98;;;9.80;;
7450;SDS011;3767;42.688;23.360;2022-07-24T10:29:15;15.27;;;9.25;;
7450;SDS011;3767;42.688;23.360;2022-07-24T10:31:42;13.40;;;9.82;;
7450;SDS011;3767;42.688;23.360;2022-07-24T10:34:11;15.90;;;9.82;;
7450;SDS011;3767;42.688;23.360;2022-07-24T10:36:40;11.07;;;9.32;;
7450;SDS011;3767;42.688;23.360;2022-07-24T10:39:09;11.88;;;9.10;;
7450;SDS011;3767;42.688;23.360;2022-07-24T10:41:38;10.18;;;9.10;;
7450;SDS011;3767;42.688;23.360;2022-07-24T10:44:14;13.23;;;9.57;;
7450;SDS011;3767;42.688;23.360;2022-07-24T10:46:58;13.50;;;9.68;;
7450;SDS011;3767;42.688;23.360;2022-07-24T10:49:34;11.68;;;9.52;;
7450;SDS011;3767;42.688;23.360;2022-07-24T10:52:00;12.13;;;9.25;;
7450;SDS011;3767;42.688;23.360;2022-07-24T10:54:27;10.48;;;9.40;;
7450;SDS011;3767;42.688;23.360;2022-07-24T10:56:55;10.25;;;9.20;;
7450;SDS011;3767;42.688;23.360;2022-07-24T10:59:31;11.35;;;9.32;;
7450;SDS011;3767;42.688;23.360;2022-07-24T11:01:58;9.85;;;8.82;;
7450;SDS011;3767;42.688;23.360;2022-07-24T11:04:44;10.63;;;9.55;;
7450;SDS011;3767;42.688;23.360;2022-07-24T11:07:11;10.73;;;9.77;;
7450;SDS011;3767;42.688;23.360;2022-07-24T11:12:38;10.73;;;9.68;;
7450;SDS011;3767;42.688;23.360;2022-07-24T11:15:07;13.68;;;9.43;;
7450;SDS011;3767;42.688;23.360;2022-07-24T11:17:51;10.80;;;9.88;;
7450;SDS011;3767;42.688;23.360;2022-07-24T11:20:18;10.93;;;9.68;;
7450;SDS011;3767;42.688;23.360;2022-07-24T11:22:46;11.15;;;10.05;;
7450;SDS011;3767;42.688;23.360;2022-07-24T11:25:17;10.40;;;9.40;;
7450;SDS011;3767;42.688;23.360;2022-07-24T11:30:30;12.23;;;10.18;;
7450;SDS011;3767;42.688;23.360;2022-07-24T11:32:57;11.07;;;10.00;;
7450;SDS011;3767;42.688;23.360;2022-07-24T11:35:27;10.10;;;9.13;;
7450;SDS011;3767;42.688;23.360;2022-07-24T11:37:53;11.15;;;9.82;;
7450;SDS011;3767;42.688;23.360;2022-07-24T11:40:20;13.73;;;10.10;;
7450;SDS011;3767;42.688;23.360;2022-07-24T11:42:47;11.15;;;10.15;;
7450;SDS011;3767;42.688;23.360;2022-07-24T11:45:19;11.82;;;10.02;;
7450;SDS011;3767;42.688;23.360;2022-07-24T11:47:47;10.30;;;9.30;;
7450;SDS011;3767;42.688;23.360;2022-07-24T11:50:14;11.45;;;9.52;;
7450;SDS011;3767;42.688;23.360;2022-07-24T11:52:41;11.43;;;10.20;;
7450;SDS011;3767;42.688;23.360;2022-07-24T11:55:08;13.27;;;11.05;;
7450;SDS011;3767;42.688;23.360;2022-07-24T11:57:36;13.48;;;11.07;;
7450;SDS011;3767;42.688;23.360;2022-07-24T12:00:03;14.85;;;10.57;;
7450;SDS011;3767;42.688;23.360;2022-07-24T12:02:31;13.45;;;10.63;;
7450;SDS011;3767;42.688;23.360;2022-07-24T12:04:59;12.77;;;10.38;;
7450;SDS011;3767;42.688;23.360;2022-07-24T12:07:26;12.48;;;10.63;;
7450;SDS011;3767;42.688;23.360;2022-07-24T12:09:53;15.13;;;10.85;;
7450;SDS011;3767;42.688;23.360;2022-07-24T12:12:20;12.05;;;10.35;;
7450;SDS011;3767;42.688;23.360;2022-07-24T12:14:47;13.00;;;10.32;;
7450;SDS011;3767;42.688;23.360;2022-07-24T12:17:13;11.98;;;10.85;;
7450;SDS011;3767;42.688;23.360;2022-07-24T12:19:40;11.32;;;10.25;;
7450;SDS011;3767;42.688;23.360;2022-07-24T12:22:17;15.88;;;10.35;;
7450;SDS011;3767;42.688;23.360;2022-07-24T12:24:44;13.68;;;10.45;;
7450;SDS011;3767;42.688;23.360;2022-07-24T12:27:11;13.43;;;10.25;;
7450;SDS011;3767;42.688;23.360;2022-07-24T12:29:41;12.13;;;10.10;;
7450;SDS011;3767;42.688;23.360;2022-07-24T12:32:14;11.00;;;9.88;;
7450;SDS011;3767;42.688;23.360;2022-07-24T12:34:41;17.80;;;10.48;;
7450;SDS011;3767;42.688;23.360;2022-07-24T12:37:13;14.13;;;9.95;;
7450;SDS011;3767;42.688;23.360;2022-07-24T12:39:46;12.73;;;10.38;;
7450;SDS011;3767;42.688;23.360;2022-07-24T12:42:12;13.77;;;10.18;;
7450;SDS011;3767;42.688;23.360;2022-07-24T12:44:39;14.65;;;10.40;;
7450;SDS011;3767;42.688;23.360;2022-07-24T12:47:07;13.15;;;10.10;;
7450;SDS011;3767;42.688;23.360;2022-07-24T12:49:39;14.75;;;10.27;;
7450;SDS011;3767;42.688;23.360;2022-07-24T12:52:05;14.13;;;11.00;;
7450;SDS011;3767;42.688;23.360;2022-07-24T12:54:46;13.52;;;11.15;;
7450;SDS011;3767;42.688;23.360;2022-07-24T12:57:13;13.57;;;10.73;;
7450;SDS011;3767;42.688;23.360;2022-07-24T12:59:40;11.55;;;10.20;;
7450;SDS011;3767;42.688;23.360;2022-07-24T13:02:09;12.48;;;10.40;;
7450;SDS011;3767;42.688;23.360;2022-07-24T13:04:39;12.50;;;10.52;;
7450;SDS011;3767;42.688;23.360;2022-07-24T13:07:07;14.52;;;11.05;;
7450;SDS011;3767;42.688;23.360;2022-07-24T13:09:33;11.90;;;10.18;;
7450;SDS011;3767;42.688;23.360;2022-07-24T13:12:01;12.63;;;10.40;;
7450;SDS011;3767;42.688;23.360;2022-07-24T13:14:28;10.90;;;9.80;;
7450;SDS011;3767;42.688;23.360;2022-07-24T13:16:55;10.35;;;9.32;;
7450;SDS011;3767;42.688;23.360;2022-07-24T13:19:27;10.13;;;9.23;;
7450;SDS011;3767;42.688;23.360;2022-07-24T13:21:53;10.45;;;9.55;;
7450;SDS011;3767;42.688;23.360;2022-07-24T13:24:20;10.25;;;9.45;;
7450;SDS011;3767;42.688;23.360;2022-07-24T13:26:46;11.40;;;10.38;;
7450;SDS011;3767;42.688;23.360;2022-07-24T13:29:14;10.25;;;9.45;;
7450;SDS011;3767;42.688;23.360;2022-07-24T13:31:40;10.30;;;9.50;;
7450;SDS011;3767;42.688;23.360;2022-07-24T13:34:07;11.32;;;10.20;;
7450;SDS011;3767;42.688;23.360;2022-07-24T13:36:34;10.82;;;9.82;;
7450;SDS011;3767;42.688;23.360;2022-07-24T13:39:00;12.20;;;10.13;;
7450;SDS011;3767;42.688;23.360;2022-07-24T13:41:27;10.93;;;9.93;;
7450;SDS011;3767;42.688;23.360;2022-07-24T13:43:54;13.20;;;9.25;;
7450;SDS011;3767;42.688;23.360;2022-07-24T13:46:22;11.68;;;9.93;;
7450;SDS011;3767;42.688;23.360;2022-07-24T13:48:49;11.90;;;10.80;;
7450;SDS011;3767;42.688;23.360;2022-07-24T13:51:16;11.38;;;10.38;;
7450;SDS011;3767;42.688;23.360;2022-07-24T13:53:43;12.07;;;10.23;;
7450;SDS011;3767;42.688;23.360;2022-07-24T13:56:09;10.88;;;9.90;;
7450;SDS011;3767;42.688;23.360;2022-07-24T13:58:37;11.77;;;10.68;;
7450;SDS011;3767;42.688;23.360;2022-07-24T14:01:04;12.32;;;10.57;;
7450;SDS011;3767;42.688;23.360;2022-07-24T14:03:33;11.52;;;10.57;;
7450;SDS011;3767;42.688;23.360;2022-07-24T14:05:59;11.00;;;9.93;;
7450;SDS011;3767;42.688;23.360;2022-07-24T14:08:27;11.38;;;10.48;;
7450;SDS011;3767;42.688;23.360;2022-07-24T14:10:53;12.40;;;10.07;;
7450;SDS011;3767;42.688;23.360;2022-07-24T14:13:20;11.10;;;10.05;;
7450;SDS011;3767;42.688;23.360;2022-07-24T14:15:46;21.80;;;11.23;;
7450;SDS011;3767;42.688;23.360;2022-07-24T14:18:13;22.52;;;11.13;;
7450;SDS011;3767;42.688;23.360;2022-07-24T14:20:41;19.80;;;10.93;;
7450;SDS011;3767;42.688;23.360;2022-07-24T14:23:07;21.63;;;10.73;;
7450;SDS011;3767;42.688;23.360;2022-07-24T14:25:34;16.33;;;11.10;;
7450;SDS011;3767;42.688;23.360;2022-07-24T14:28:00;15.18;;;11.38;;
7450;SDS011;3767;42.688;23.360;2022-07-24T14:30:27;13.07;;;11.00;;
7450;SDS011;3767;42.688;23.360;2022-07-24T14:32:53;12.77;;;11.30;;
7450;SDS011;3767;42.688;23.360;2022-07-24T14:35:20;12.30;;;11.18;;
7450;SDS011;3767;42.688;23.360;2022-07-24T14:37:48;13.27;;;11.45;;
7450;SDS011;3767;42.688;23.360;2022-07-24T14:40:14;12.60;;;11.43;;
7450;SDS011;3767;42.688;23.360;2022-07-24T14:42:41;13.00;;;11.68;;
7450;SDS011;3767;42.688;23.360;2022-07-24T14:45:08;12.63;;;11.45;;
7450;SDS011;3767;42.688;23.360;2022-07-24T14:47:34;12.95;;;11.45;;
7450;SDS011;3767;42.688;23.360;2022-07-24T14:50:03;15.48;;;12.13;;